Time,TemperatureF,DewpointF,PressureIn,WindDirection,WindDirectionDegrees,WindSpeedMPH,WindSpeedGustMPH,Humidity,HourlyPrecipIn,Conditions,Clouds,dailyrainin,SoftwareType,DateUTC
2013-07-06 00:02:00,76.0,58.0,29.84,SSW,202,2.0,3.0,54,0.00,,,0.00,,2013-07-06 04:02:00,
2013-07-06 00:12:00,76.0,58.0,29.84,SSW,202,2.0,3.0,54,0.00,,,0.00,,2013-07-06 04:12:00,
2013-07-06 00:31:00,76.0,58.0,29.83,ESE,112,5.0,51.0,54,0.00,,,0.00,,2013-07-06 04:31:00,
2013-07-06 00:53:00,76.0,58.0,29.83,ESE,112,5.0,51.0,54,0.00,,,0.00,,2013-07-06 04:53:00,
2013-07-06 01:02:00,76.0,58.0,29.83,ESE,112,5.0,51.0,54,0.00,,,0.00,,2013-07-06 05:02:00,
2013-07-06 01:12:00,76.0,58.0,29.83,ESE,112,5.0,51.0,54,0.00,,,0.00,,2013-07-06 05:12:00,
2013-07-06 01:22:00,76.0,58.0,29.83,ESE,112,5.0,51.0,54,0.00,,,0.00,,2013-07-06 05:22:00,
2013-07-06 01:53:00,75.0,58.0,29.83,SE,135,2.0,5.0,55,0.00,,,0.00,,2013-07-06 05:53:00,
2013-07-06 02:02:00,75.0,58.0,29.84,NW,315,2.0,5.0,56,0.00,,,0.00,,2013-07-06 06:02:00,
2013-07-06 02:12:00,75.0,58.0,29.84,NW,315,2.0,5.0,56,0.00,,,0.00,,2013-07-06 06:12:00,
2013-07-06 02:22:00,75.0,58.0,29.84,ENE,60,1.0,2.0,56,0.00,,,0.00,,2013-07-06 06:22:00,
2013-07-06 02:34:00,74.0,58.0,29.84,North,1,0.0,2.0,57,0.00,,,0.00,,2013-07-06 06:34:00,
2013-07-06 02:43:00,74.0,58.0,29.84,North,1,0.0,2.0,57,0.00,,,0.00,,2013-07-06 06:43:00,
2013-07-06 02:53:00,74.0,58.0,29.84,SE,124,2.0,5.0,57,0.00,,,0.00,,2013-07-06 06:53:00,
2013-07-06 03:02:00,74.0,58.0,29.85,WSW,239,4.0,5.0,58,0.00,,,0.00,,2013-07-06 07:02:00,
2013-07-06 03:12:00,74.0,58.0,29.85,WSW,239,4.0,5.0,58,0.00,,,0.00,,2013-07-06 07:12:00,
2013-07-06 03:22:00,74.0,59.0,29.85,West,270,1.0,3.0,59,0.00,,,0.00,,2013-07-06 07:22:00,
2013-07-06 03:33:00,74.0,59.0,29.85,West,275,0.0,2.0,59,0.00,,,0.00,,2013-07-06 07:33:00,
2013-07-06 03:44:00,74.0,59.0,29.85,West,275,0.0,2.0,59,0.00,,,0.00,,2013-07-06 07:44:00,
2013-07-06 03:52:00,74.0,59.0,29.85,ESE,119,2.0,2.0,59,0.00,,,0.00,,2013-07-06 07:52:00,
2013-07-06 04:02:00,74.0,59.0,29.85,ESE,112,2.0,8.0,60,0.00,,,0.00,,2013-07-06 08:02:00,
2013-07-06 04:12:00,74.0,59.0,29.85,ESE,112,2.0,8.0,60,0.00,,,0.00,,2013-07-06 08:12:00,
2013-07-06 04:21:00,74.0,59.0,29.85,East,91,1.0,8.0,60,0.00,,,0.00,,2013-07-06 08:21:00,
2013-07-06 04:34:00,74.0,59.0,29.85,East,90,1.0,3.0,60,0.00,,,0.00,,2013-07-06 08:34:00,
2013-07-06 04:43:00,74.0,59.0,29.85,East,90,1.0,3.0,60,0.00,,,0.00,,2013-07-06 08:43:00,
2013-07-06 04:54:00,74.0,59.0,29.85,East,90,1.0,3.0,60,0.00,,,0.00,,2013-07-06 08:54:00,
2013-07-06 05:02:00,74.0,60.0,29.84,WSW,248,1.0,2.0,61,0.00,,,0.00,,2013-07-06 09:02:00,
2013-07-06 05:11:00,74.0,60.0,29.84,WSW,248,1.0,2.0,61,0.00,,,0.00,,2013-07-06 09:11:00,
2013-07-06 05:22:00,73.0,59.0,29.84,SE,135,2.0,2.0,61,0.00,,,0.00,,2013-07-06 09:22:00,
2013-07-06 05:33:00,73.0,59.0,29.84,West,271,1.0,2.0,62,0.00,,,0.00,,2013-07-06 09:33:00,
2013-07-06 05:43:00,73.0,59.0,29.84,West,271,1.0,2.0,62,0.00,,,0.00,,2013-07-06 09:43:00,
2013-07-06 05:53:00,73.0,59.0,29.84,SE,135,2.0,3.0,62,0.00,,,0.00,,2013-07-06 09:53:00,
2013-07-06 06:02:00,73.0,59.0,29.84,NW,315,1.0,2.0,62,0.00,,,0.00,,2013-07-06 10:02:00,
2013-07-06 06:11:00,73.0,59.0,29.84,NW,315,1.0,2.0,62,0.00,,,0.00,,2013-07-06 10:11:00,
2013-07-06 06:22:00,73.0,59.0,29.84,NW,315,1.0,2.0,62,0.00,,,0.00,,2013-07-06 10:22:00,
2013-07-06 06:33:00,72.0,59.0,29.85,West,270,1.0,2.0,63,0.00,,,0.00,,2013-07-06 10:33:00,
2013-07-06 06:42:00,72.0,59.0,29.85,West,270,1.0,2.0,63,0.00,,,0.00,,2013-07-06 10:42:00,
2013-07-06 06:53:00,72.0,59.0,29.85,NW,315,2.0,6.0,64,0.00,,,0.00,,2013-07-06 10:53:00,
2013-07-06 07:01:00,72.0,59.0,29.85,NW,315,0.0,3.0,64,0.00,,,0.00,,2013-07-06 11:01:00,
2013-07-06 07:11:00,72.0,59.0,29.85,NW,315,0.0,3.0,64,0.00,,,0.00,,2013-07-06 11:11:00,
2013-07-06 07:22:00,71.0,59.0,29.85,NW,315,0.0,3.0,65,0.00,,,0.00,,2013-07-06 11:22:00,
2013-07-06 07:33:00,71.0,59.0,29.85,West,262,0.0,1.0,66,0.00,,,0.00,,2013-07-06 11:33:00,
2013-07-06 07:42:00,71.0,59.0,29.85,West,262,0.0,1.0,66,0.00,,,0.00,,2013-07-06 11:42:00,
2013-07-06 07:53:00,72.0,60.0,29.86,North,0,1.0,1.0,66,0.00,,,0.00,,2013-07-06 11:53:00,
2013-07-06 08:01:00,71.0,59.0,29.86,NW,315,1.0,1.0,66,0.00,,,0.00,,2013-07-06 12:01:00,
2013-07-06 08:12:00,71.0,59.0,29.86,NW,315,1.0,1.0,66,0.00,,,0.00,,2013-07-06 12:12:00,
2013-07-06 08:22:00,71.0,59.0,29.86,SW,225,1.0,1.0,67,0.00,,,0.00,,2013-07-06 12:22:00,
2013-07-06 08:33:00,72.0,60.0,29.86,SSE,161,6.0,45.0,67,0.00,,,0.00,,2013-07-06 12:33:00,
2013-07-06 08:43:00,72.0,60.0,29.86,SSE,161,6.0,45.0,67,0.00,,,0.00,,2013-07-06 12:43:00,
2013-07-06 08:52:00,73.0,61.0,29.85,NNW,342,21.0,51.0,66,0.00,,,0.00,,2013-07-06 12:52:00,
2013-07-06 09:01:00,75.0,62.0,29.86,West,270,1.0,49.0,65,0.00,,,0.00,,2013-07-06 13:01:00,
2013-07-06 09:12:00,75.0,62.0,29.86,West,270,1.0,49.0,65,0.00,,,0.00,,2013-07-06 13:12:00,
2013-07-06 09:22:00,75.0,62.0,29.86,West,270,1.0,49.0,65,0.00,,,0.00,,2013-07-06 13:22:00,
2013-07-06 09:33:00,76.0,62.0,29.85,WNW,292,2.0,2.0,63,0.00,,,0.00,,2013-07-06 13:33:00,
2013-07-06 09:43:00,76.0,62.0,29.85,WNW,292,2.0,2.0,63,0.00,,,0.00,,2013-07-06 13:43:00,
2013-07-06 09:52:00,78.0,64.0,29.86,WNW,290,1.0,3.0,62,0.00,,,0.00,,2013-07-06 13:52:00,
2013-07-06 10:02:00,79.0,64.0,29.86,NNE,22,2.0,2.0,61,0.00,,,0.00,,2013-07-06 14:02:00,
2013-07-06 10:11:00,79.0,64.0,29.86,NNE,22,2.0,2.0,61,0.00,,,0.00,,2013-07-06 14:11:00,
2013-07-06 10:22:00,80.0,64.0,29.86,SW,225,19.0,56.0,59,0.00,,,0.00,,2013-07-06 14:22:00,
2013-07-06 10:34:00,80.0,64.0,29.86,SW,225,19.0,56.0,59,0.00,,,0.00,,2013-07-06 14:34:00,
2013-07-06 10:42:00,80.0,64.0,29.86,SW,225,19.0,56.0,59,0.00,,,0.00,,2013-07-06 14:42:00,
2013-07-06 10:53:00,82.0,65.0,29.86,NNE,24,1.0,5.0,56,0.00,,,0.00,,2013-07-06 14:53:00,
2013-07-06 11:02:00,82.0,65.0,29.86,North,357,0.0,3.0,56,0.00,,,0.00,,2013-07-06 15:02:00,
2013-07-06 11:12:00,82.0,65.0,29.86,North,357,0.0,3.0,56,0.00,,,0.00,,2013-07-06 15:12:00,
2013-07-06 11:22:00,84.0,66.0,29.86,SE,135,5.0,6.0,54,0.00,,,0.00,,2013-07-06 15:22:00,
2013-07-06 11:43:00,85.0,65.0,29.86,NW,315,2.0,46.0,52,0.00,,,0.00,,2013-07-06 15:43:00,
2013-07-06 11:53:00,86.0,66.0,29.86,WNW,292,1.0,3.0,51,0.00,,,0.00,,2013-07-06 15:53:00,
2013-07-06 12:01:00,89.0,67.0,29.87,SSE,158,0.0,2.0,48,0.00,,,0.00,,2013-07-06 16:01:00,
2013-07-06 12:07:00,87.0,67.0,29.87,North,0,0.0,35.0,51,0.00,,,0.00,,2013-07-06 16:07:00,
2013-07-06 12:15:00,87.0,67.0,29.87,North,0,0.0,35.0,51,0.00,,,0.00,,2013-07-06 16:15:00,
2013-07-06 12:52:00,89.0,67.0,29.87,SSE,158,0.0,2.0,48,0.00,,,0.00,,2013-07-06 16:52:00,
2013-07-06 14:53:00,90.0,65.0,29.85,WNW,292,2.0,3.0,44,0.00,,,0.00,,2013-07-06 18:53:00,
2013-07-06 15:08:00,90.0,65.0,29.85,WNW,292,2.0,3.0,44,0.00,,,0.00,,2013-07-06 19:08:00,
2013-07-06 15:43:00,93.0,66.0,29.84,WNW,292,0.0,0.0,42,0.00,,,0.00,,2013-07-06 19:43:00,
2013-07-06 16:01:00,92.0,65.0,29.83,WNW,292,0.0,7.0,41,0.00,,,0.00,,2013-07-06 20:01:00,
2013-07-06 16:23:00,92.0,63.0,29.83,SE,129,3.0,39.0,39,0.00,,,0.00,,2013-07-06 20:23:00,
2013-07-06 16:31:00,92.0,65.0,29.83,WNW,292,0.0,7.0,41,0.00,,,0.00,,2013-07-06 20:31:00,
2013-07-06 16:44:00,92.0,65.0,29.83,WNW,292,0.0,7.0,41,0.00,,,0.00,,2013-07-06 20:44:00,
2013-07-06 16:53:00,92.0,65.0,29.83,WNW,292,0.0,7.0,41,0.00,,,0.00,,2013-07-06 20:53:00,
2013-07-06 17:33:00,89.0,66.0,29.83,WSW,248,0.0,2.0,47,0.00,,,0.00,,2013-07-06 21:33:00,
2013-07-06 18:08:00,89.0,64.0,29.83,NNE,20,1.0,1.0,43,0.00,,,0.00,,2013-07-06 22:08:00,
2013-07-06 18:43:00,83.0,65.0,29.83,East,90,0.0,0.0,54,0.00,,,0.00,,2013-07-06 22:43:00,
2013-07-06 18:52:00,83.0,65.0,29.83,East,90,0.0,0.0,54,0.00,,,0.00,,2013-07-06 22:52:00,
2013-07-06 19:09:00,81.0,64.0,29.83,SSW,212,0.0,1.0,56,0.00,,,0.00,,2013-07-06 23:09:00,
2013-07-06 19:31:00,77.0,63.0,29.83,SE,135,34.0,55.0,62,0.00,,,0.00,,2013-07-06 23:31:00,
2013-07-06 20:13:00,77.0,63.0,29.83,SE,135,34.0,55.0,62,0.00,,,0.00,,2013-07-07 00:13:00,
2013-07-06 20:23:00,77.0,63.0,29.83,SE,135,34.0,55.0,62,0.00,,,0.00,,2013-07-07 00:23:00,
2013-07-06 20:35:00,74.0,61.0,29.88,West,270,4.0,54.0,65,0.00,,,0.00,,2013-07-07 00:35:00,
2013-07-06 21:08:00,74.0,61.0,29.88,West,270,4.0,54.0,65,0.00,,,0.00,,2013-07-07 01:08:00,
2013-07-06 21:22:00,74.0,61.0,29.88,West,270,4.0,54.0,65,0.00,,,0.00,,2013-07-07 01:22:00,
2013-07-06 21:31:00,74.0,61.0,29.88,West,270,4.0,54.0,65,0.00,,,0.00,,2013-07-07 01:31:00,
2013-07-06 22:40:00,70.0,60.0,29.86,SSE,160,38.0,54.0,70,0.00,,,0.00,,2013-07-07 02:40:00,
2013-07-06 23:11:00,70.0,60.0,29.86,SSE,160,38.0,54.0,70,0.00,,,0.00,,2013-07-07 03:11:00,
2013-07-06 23:38:00,70.0,60.0,29.86,SSE,160,38.0,54.0,70,0.00,,,0.00,,2013-07-07 03:38:00,